createdAt,value
2017-03-23T00:01:07.884Z,9.18
2017-03-23T00:02:18.218Z,9.2
2017-03-23T00:03:27.255Z,9.15
2017-03-23T00:04:36.203Z,9.21
2017-03-23T00:05:45.165Z,9.26
2017-03-23T00:06:54.371Z,9.23
2017-03-23T00:08:04.313Z,9.33
2017-03-23T00:09:13.269Z,9.26
2017-03-23T00:10:22.349Z,9.32
2017-03-23T00:11:31.295Z,9.29
2017-03-23T00:12:40.506Z,9.33
2017-03-23T00:13:49.546Z,9.38
2017-03-23T00:14:58.497Z,9.26
2017-03-23T00:16:07.454Z,9.2
2017-03-23T00:17:16.410Z,9.24
2017-03-23T00:18:25.618Z,9.23
2017-03-23T00:19:34.569Z,9.24
2017-03-23T00:20:43.520Z,9.29
2017-03-23T00:21:52.482Z,9.26
2017-03-23T00:23:01.432Z,9.29
2017-03-23T00:24:10.633Z,9.23
2017-03-23T00:25:19.583Z,9.31
2017-03-23T00:26:28.538Z,9.26
2017-03-23T00:27:37.491Z,9.18
2017-03-23T00:28:46.445Z,9.2
2017-03-23T00:29:55.745Z,9.26
2017-03-23T00:31:04.785Z,9.18
2017-03-23T00:32:13.763Z,9.35
2017-03-23T00:33:22.715Z,9.26
2017-03-23T00:34:31.663Z,9.35
2017-03-23T00:35:40.863Z,9.26
2017-03-23T00:36:49.815Z,9.23
2017-03-23T00:37:58.772Z,9.18
2017-03-23T00:39:07.728Z,9.2
2017-03-23T00:40:16.770Z,9.21
2017-03-23T00:41:25.974Z,9.14
2017-03-23T00:42:34.931Z,9.15
2017-03-23T00:43:43.882Z,9.23
2017-03-23T00:44:52.836Z,9.23
2017-03-23T00:46:01.789Z,9.21
2017-03-23T00:47:10.991Z,9.24
2017-03-23T00:48:19.943Z,9.17
2017-03-23T00:49:28.896Z,9.15
2017-03-23T00:50:37.849Z,9.24
2017-03-23T00:51:46.805Z,9.2
2017-03-23T00:52:56.014Z,9.08
2017-03-23T00:54:04.967Z,9.1
2017-03-23T00:55:13.927Z,9.13
2017-03-23T00:56:22.883Z,9.04
2017-03-23T00:57:31.832Z,9.04
2017-03-23T00:58:41.036Z,9.15
2017-03-23T00:59:49.989Z,9.05
2017-03-23T01:00:58.949Z,9.13
2017-03-23T01:02:07.902Z,9.05
2017-03-23T01:03:16.859Z,9.1
2017-03-23T01:04:26.064Z,9.14
2017-03-23T01:05:35.020Z,9.14
2017-03-23T01:06:43.972Z,9.14
2017-03-23T01:07:53.099Z,9.15
2017-03-23T01:09:02.059Z,9.15
2017-03-23T01:10:11.262Z,9.15
2017-03-23T01:11:20.219Z,9.14
2017-03-23T01:12:29.177Z,9.08
2017-03-23T01:13:38.214Z,9.08
2017-03-23T01:14:47.167Z,9.13
2017-03-23T01:15:56.380Z,9.11
2017-03-23T01:17:05.333Z,9.1
2017-03-23T01:18:14.611Z,9.14
2017-03-23T01:19:23.565Z,9.1
2017-03-23T01:20:32.518Z,9.18
2017-03-23T01:21:41.857Z,9.13
2017-03-23T01:22:50.809Z,9.08
2017-03-23T01:23:59.762Z,8.99
2017-03-23T01:25:08.754Z,8.96
2017-03-23T01:26:17.728Z,9.05
2017-03-23T01:27:26.935Z,9.01
2017-03-23T01:28:35.988Z,9.01
2017-03-23T01:29:44.940Z,9.05
2017-03-23T01:30:53.893Z,9.01
2017-03-23T01:32:02.851Z,9.1
2017-03-23T01:33:12.147Z,9.01
2017-03-23T01:34:21.098Z,9.1
2017-03-23T01:35:30.049Z,9.13
2017-03-23T01:36:39.003Z,9.1
2017-03-23T01:37:47.953Z,9.11
2017-03-23T01:38:57.153Z,9.05
2017-03-23T01:40:06.106Z,8.92
2017-03-23T01:41:15.061Z,8.94
2017-03-23T01:42:24.037Z,8.94
2017-03-23T01:43:33.320Z,8.99
2017-03-23T01:44:42.523Z,9.04
2017-03-23T01:45:51.473Z,9.01
2017-03-23T01:47:00.431Z,8.94
2017-03-23T01:48:09.383Z,8.99
2017-03-23T01:49:18.330Z,8.99
2017-03-23T01:50:27.537Z,8.94
2017-03-23T01:51:36.490Z,8.95
2017-03-23T01:52:45.438Z,8.92
2017-03-23T01:53:54.389Z,8.95
2017-03-23T01:55:03.336Z,8.96
2017-03-23T01:56:12.538Z,8.91
2017-03-23T01:57:21.585Z,8.92
2017-03-23T01:58:30.534Z,8.94
2017-03-23T01:59:39.484Z,8.91
2017-03-23T02:00:48.438Z,8.91
2017-03-23T02:01:57.648Z,8.95
2017-03-23T02:03:06.689Z,8.92
2017-03-23T02:04:15.733Z,8.89
2017-03-23T02:05:24.685Z,8.94
2017-03-23T02:06:33.645Z,8.89
2017-03-23T02:07:42.846Z,8.91
2017-03-23T02:08:51.796Z,8.92
2017-03-23T02:10:00.922Z,8.87
2017-03-23T02:11:09.875Z,8.81
2017-03-23T02:12:18.828Z,8.84
2017-03-23T02:13:28.044Z,8.76
2017-03-23T02:14:37.319Z,8.86
2017-03-23T02:15:46.270Z,8.79
2017-03-23T02:16:55.310Z,8.77
2017-03-23T02:18:04.260Z,8.81
2017-03-23T02:19:13.457Z,8.76
2017-03-23T02:20:22.406Z,8.76
2017-03-23T02:21:31.356Z,8.83
2017-03-23T02:22:40.307Z,8.83
2017-03-23T02:23:49.257Z,8.73
2017-03-23T02:24:58.455Z,8.71
2017-03-23T02:26:07.417Z,8.74
2017-03-23T02:27:16.369Z,8.73
2017-03-23T02:28:25.324Z,8.74
2017-03-23T02:29:34.363Z,8.7
2017-03-23T02:30:43.568Z,8.73
2017-03-23T02:31:52.528Z,8.68
2017-03-23T02:33:01.481Z,8.68
2017-03-23T02:34:10.432Z,8.63
2017-03-23T02:35:19.386Z,8.65
2017-03-23T02:36:28.589Z,8.61
2017-03-23T02:37:37.630Z,8.68
2017-03-23T02:38:46.580Z,8.61
2017-03-23T02:39:55.532Z,8.59
2017-03-23T02:41:04.483Z,8.52
2017-03-23T02:42:13.701Z,8.52
2017-03-23T02:43:22.651Z,8.53
2017-03-23T02:44:31.599Z,8.53
2017-03-23T02:45:40.557Z,8.53
2017-03-23T02:46:49.512Z,8.55
2017-03-23T02:47:58.712Z,8.47
2017-03-23T02:49:07.751Z,8.53
2017-03-23T02:50:16.703Z,8.59
2017-03-23T02:51:25.661Z,8.59
2017-03-23T02:52:34.610Z,8.47
2017-03-23T02:53:43.818Z,8.53
2017-03-23T02:54:52.772Z,8.44
2017-03-23T02:56:01.723Z,8.4
2017-03-23T02:57:10.679Z,8.45
2017-03-23T02:58:19.726Z,8.43
2017-03-23T02:59:28.929Z,8.41
2017-03-23T03:00:37.878Z,8.34
2017-03-23T03:01:46.831Z,8.4
2017-03-23T03:02:55.866Z,8.37
2017-03-23T03:04:04.818Z,8.38
2017-03-23T03:05:14.021Z,8.4
2017-03-23T03:06:22.979Z,8.43
2017-03-23T03:07:31.935Z,8.43
2017-03-23T03:08:40.887Z,8.38
2017-03-23T03:09:49.838Z,8.47
2017-03-23T03:10:59.042Z,8.45
2017-03-23T03:12:07.990Z,8.44
2017-03-23T03:13:16.940Z,8.41
2017-03-23T03:14:25.976Z,8.43
2017-03-23T03:15:35.017Z,8.38
2017-03-23T03:16:44.226Z,8.37
2017-03-23T03:17:53.183Z,8.41
2017-03-23T03:19:02.133Z,8.22
2017-03-23T03:20:11.081Z,8.15
2017-03-23T03:21:20.031Z,8.19
2017-03-23T03:22:29.232Z,8.22
2017-03-23T03:23:38.186Z,8.22
2017-03-23T03:24:47.145Z,8.19
2017-03-23T03:25:56.098Z,8.16
2017-03-23T03:27:05.088Z,8.12
2017-03-23T03:28:14.290Z,8.12
2017-03-23T03:29:23.240Z,8.01
2017-03-23T03:30:32.189Z,8.01
2017-03-23T03:31:41.142Z,8.01
2017-03-23T03:32:50.092Z,8.1
2017-03-23T03:33:59.298Z,8.11
2017-03-23T03:35:08.252Z,8.18
2017-03-23T03:36:17.200Z,8.19
2017-03-23T03:37:26.158Z,8.2
2017-03-23T03:38:35.148Z,8.22
2017-03-23T03:39:44.352Z,8.29
2017-03-23T03:40:53.630Z,8.2
2017-03-23T03:42:02.587Z,8.34
2017-03-23T03:43:11.626Z,8.43
2017-03-23T03:44:20.601Z,8.37
2017-03-23T03:45:29.813Z,8.44
2017-03-23T03:46:38.858Z,8.41
2017-03-23T03:47:47.804Z,8.4
2017-03-23T03:48:56.759Z,8.5
2017-03-23T03:50:05.795Z,8.44
2017-03-23T03:51:15.046Z,8.47
2017-03-23T03:52:23.998Z,8.53
2017-03-23T03:53:32.947Z,8.44
2017-03-23T03:54:41.894Z,8.43
2017-03-23T03:55:50.843Z,8.47
2017-03-23T03:57:00.137Z,8.37
2017-03-23T03:58:09.089Z,8.4
2017-03-23T03:59:18.126Z,8.3
2017-03-23T04:00:27.078Z,8.28
2017-03-23T04:01:36.139Z,8.36
2017-03-23T04:02:45.341Z,8.34
2017-03-23T04:03:54.294Z,8.26
2017-03-23T04:05:03.254Z,8.3
2017-03-23T04:06:12.226Z,8.2
2017-03-23T04:07:21.183Z,8.22
2017-03-23T04:08:30.810Z,8.19
2017-03-23T04:09:39.759Z,8.2
2017-03-23T04:10:48.707Z,8.12
2017-03-23T04:11:57.659Z,8.04
2017-03-23T04:13:06.614Z,8.11
2017-03-23T04:14:15.814Z,8.2
2017-03-23T04:15:24.766Z,8.2
2017-03-23T04:16:33.741Z,8.22
2017-03-23T04:17:42.690Z,8.3
2017-03-23T04:18:51.650Z,8.16
2017-03-23T04:20:00.855Z,8.33
2017-03-23T04:21:09.805Z,8.41
2017-03-23T04:22:18.761Z,8.4
2017-03-23T04:23:27.715Z,8.4
2017-03-23T04:24:36.663Z,8.44
2017-03-23T04:25:45.865Z,8.43
2017-03-23T04:26:54.820Z,8.48
2017-03-23T04:28:03.792Z,8.44
2017-03-23T04:29:12.745Z,8.5
2017-03-23T04:30:21.704Z,8.48
2017-03-23T04:31:30.907Z,8.5
2017-03-23T04:32:39.857Z,8.53
2017-03-23T04:33:48.806Z,8.47
2017-03-23T04:34:57.756Z,8.52
2017-03-23T04:36:06.708Z,8.53
2017-03-23T04:37:15.966Z,8.48
2017-03-23T04:38:24.917Z,8.58
2017-03-23T04:39:33.863Z,8.5
2017-03-23T04:40:42.815Z,8.43
2017-03-23T04:41:51.766Z,8.37
2017-03-23T04:43:00.967Z,8.44
2017-03-23T04:44:09.912Z,8.43
2017-03-23T04:45:18.866Z,8.38
2017-03-23T04:46:27.814Z,8.28
2017-03-23T04:47:36.763Z,8.33
2017-03-23T04:48:45.968Z,8.26
2017-03-23T04:49:54.923Z,8.37
2017-03-23T04:51:03.875Z,8.3
2017-03-23T04:52:12.822Z,8.34
2017-03-23T04:53:21.805Z,8.36
2017-03-23T04:54:31.005Z,8.37
2017-03-23T04:55:39.957Z,8.34
2017-03-23T04:56:48.908Z,8.28
2017-03-23T04:57:57.867Z,8.28
2017-03-23T04:59:06.821Z,8.2
2017-03-23T05:00:16.575Z,8.28
2017-03-23T05:01:25.524Z,8.33
2017-03-23T05:02:34.559Z,8.38
2017-03-23T05:03:43.509Z,8.37
2017-03-23T05:04:52.462Z,8.44
2017-03-23T05:06:01.664Z,8.4
2017-03-23T05:07:10.616Z,8.38
2017-03-23T05:08:19.979Z,8.38
2017-03-23T05:09:28.929Z,8.43
2017-03-23T05:10:37.879Z,8.43
2017-03-23T05:11:47.129Z,8.38
2017-03-23T05:12:56.083Z,8.36
2017-03-23T05:14:05.367Z,8.29
2017-03-23T05:15:14.320Z,8.28
2017-03-23T05:16:23.271Z,8.28
2017-03-23T05:17:32.523Z,8.29
2017-03-23T05:18:41.478Z,8.3
2017-03-23T05:19:50.426Z,8.41
2017-03-23T05:20:59.382Z,8.34
2017-03-23T05:22:08.341Z,8.36
2017-03-23T05:23:17.633Z,8.33
2017-03-23T05:24:26.586Z,8.26
2017-03-23T05:25:35.537Z,8.28
2017-03-23T05:26:44.576Z,8.34
2017-03-23T05:27:53.527Z,8.3
2017-03-23T05:29:02.776Z,8.29
2017-03-23T05:30:11.736Z,8.43
2017-03-23T05:31:20.777Z,8.38
2017-03-23T05:32:29.726Z,8.43
2017-03-23T05:33:38.672Z,8.38
2017-03-23T05:34:48.194Z,8.37
2017-03-23T05:35:57.145Z,8.36
2017-03-23T05:37:06.095Z,8.41
2017-03-23T05:38:15.043Z,8.38
2017-03-23T05:39:23.994Z,8.3
2017-03-23T05:40:33.196Z,8.41
2017-03-23T05:41:42.152Z,8.38
2017-03-23T05:42:51.189Z,8.43
2017-03-23T05:44:01.403Z,8.45
2017-03-23T05:45:12.068Z,8.5
2017-03-23T05:46:21.285Z,8.52
2017-03-23T05:47:30.332Z,8.53
2017-03-23T05:48:39.453Z,8.5
2017-03-23T05:49:48.492Z,8.55
2017-03-23T05:50:57.825Z,8.53
2017-03-23T05:52:07.026Z,8.5
2017-03-23T05:53:16.040Z,8.5
2017-03-23T05:54:25.028Z,8.56
2017-03-23T05:55:34.447Z,8.48
2017-03-23T05:56:43.532Z,8.62
2017-03-23T05:57:52.899Z,8.62
2017-03-23T05:59:02.051Z,8.52
2017-03-23T06:00:11.361Z,8.59
2017-03-23T06:01:21.048Z,8.65
2017-03-23T06:02:30.005Z,8.61
2017-03-23T06:03:39.208Z,8.7
2017-03-23T06:04:48.160Z,8.68
2017-03-23T06:05:57.107Z,8.68
2017-03-23T06:07:06.446Z,8.68
2017-03-23T06:08:15.493Z,8.68
2017-03-23T06:09:24.690Z,8.71
2017-03-23T06:10:33.643Z,8.83
2017-03-23T06:11:42.596Z,8.83
2017-03-23T06:12:51.543Z,8.73
2017-03-23T06:14:01.877Z,8.83
2017-03-23T06:15:15.048Z,8.77
2017-03-23T06:16:26.773Z,8.8
2017-03-23T06:17:37.188Z,8.76
2017-03-23T06:18:46.152Z,8.79
2017-03-23T06:19:55.105Z,8.71
2017-03-23T06:21:04.324Z,8.68
2017-03-23T06:22:13.278Z,8.66
2017-03-23T06:23:22.489Z,8.66
2017-03-23T06:24:31.525Z,8.77
2017-03-23T06:25:40.479Z,8.73
2017-03-23T06:26:49.682Z,8.59
2017-03-23T06:27:58.631Z,8.59
2017-03-23T06:29:07.580Z,8.47
2017-03-23T06:30:16.728Z,8.47
2017-03-23T06:31:31.708Z,8.43
2017-03-23T06:32:48.883Z,8.43
2017-03-23T06:33:59.493Z,8.36
2017-03-23T06:35:08.781Z,8.28
2017-03-23T06:36:17.820Z,8.34
2017-03-23T06:37:27.004Z,8.3
2017-03-23T06:38:36.371Z,8.37
2017-03-23T06:39:45.323Z,8.38
2017-03-23T06:40:54.375Z,8.43
2017-03-23T06:42:03.530Z,8.37
2017-03-23T06:43:12.484Z,8.38
2017-03-23T06:44:21.874Z,8.34
2017-03-23T06:45:30.883Z,8.26
2017-03-23T06:46:40.103Z,8.18
2017-03-23T06:47:49.134Z,8.12
2017-03-23T06:48:58.128Z,8.02
2017-03-23T06:50:07.417Z,7.97
2017-03-23T06:51:16.517Z,7.97
2017-03-23T06:52:25.466Z,7.83
2017-03-23T06:53:34.479Z,7.85
2017-03-23T06:54:43.471Z,7.71
2017-03-23T06:55:52.840Z,7.69
2017-03-23T06:57:01.804Z,7.64
2017-03-23T06:58:10.759Z,7.55
2017-03-23T06:59:19.805Z,7.55
2017-03-23T07:00:30.466Z,7.5
2017-03-23T07:01:39.859Z,7.53
2017-03-23T07:02:48.817Z,7.55
2017-03-23T07:03:57.782Z,7.52
2017-03-23T07:05:06.818Z,7.5
2017-03-23T07:06:15.913Z,7.37
2017-03-23T07:07:25.119Z,7.35
2017-03-23T07:08:34.089Z,7.4
2017-03-23T07:09:43.126Z,7.37
2017-03-23T07:10:52.080Z,7.4
2017-03-23T07:12:01.038Z,7.31
2017-03-23T07:13:10.573Z,7.32
2017-03-23T07:14:19.554Z,7.2
2017-03-23T07:15:28.508Z,7.3
2017-03-23T07:16:37.464Z,7.42
2017-03-23T07:17:46.459Z,7.35
2017-03-23T07:18:55.659Z,7.45
2017-03-23T07:20:04.615Z,7.34
2017-03-23T07:21:13.564Z,7.48
2017-03-23T07:22:22.522Z,7.49
2017-03-23T07:23:32.045Z,7.5
2017-03-23T07:24:41.296Z,7.58
2017-03-23T07:25:50.245Z,7.68
2017-03-23T07:26:59.197Z,7.63
2017-03-23T07:28:08.242Z,7.63
2017-03-23T07:29:17.192Z,7.69
2017-03-23T07:30:26.482Z,7.57
2017-03-23T07:31:35.432Z,7.58
2017-03-23T07:32:44.449Z,7.64
2017-03-23T07:33:53.406Z,7.67
2017-03-23T07:35:02.368Z,7.72
2017-03-23T07:36:11.617Z,7.61
2017-03-23T07:37:20.569Z,7.55
2017-03-23T07:38:29.527Z,7.53
2017-03-23T07:39:38.562Z,7.6
2017-03-23T07:40:47.519Z,7.61
2017-03-23T07:41:56.728Z,7.6
2017-03-23T07:43:05.727Z,7.49
2017-03-23T07:44:14.683Z,7.57
2017-03-23T07:45:23.684Z,7.64
2017-03-23T07:46:32.634Z,7.72
2017-03-23T07:47:41.880Z,7.75
2017-03-23T07:48:51.035Z,7.8
2017-03-23T07:50:00.055Z,7.82
2017-03-23T07:51:09.102Z,7.89
2017-03-23T07:52:18.552Z,7.89
2017-03-23T07:53:27.959Z,7.95
2017-03-23T07:54:36.910Z,7.9
2017-03-23T07:55:45.858Z,7.87
2017-03-23T07:56:54.935Z,7.85
2017-03-23T07:58:03.971Z,7.95
2017-03-23T07:59:13.177Z,7.92
2017-03-23T08:00:22.130Z,7.9
2017-03-23T08:01:31.082Z,7.92
2017-03-23T08:02:40.032Z,7.93
2017-03-23T08:03:49.012Z,7.93
2017-03-23T08:04:58.259Z,7.98
2017-03-23T08:06:07.213Z,7.93
2017-03-23T08:07:16.163Z,7.89
2017-03-23T08:08:25.208Z,7.79
2017-03-23T08:09:34.499Z,7.83
2017-03-23T08:10:43.908Z,7.77
2017-03-23T08:11:52.911Z,7.75
2017-03-23T08:13:01.865Z,7.71
2017-03-23T08:14:11.007Z,7.67
2017-03-23T08:15:20.050Z,7.67
2017-03-23T08:16:29.253Z,7.61
2017-03-23T08:17:38.202Z,7.55
2017-03-23T08:18:47.222Z,7.55
2017-03-23T08:19:56.173Z,7.55
2017-03-23T08:21:05.243Z,7.52
2017-03-23T08:22:14.449Z,7.43
2017-03-23T08:23:23.490Z,7.55
2017-03-23T08:24:32.443Z,7.6
2017-03-23T08:25:41.427Z,7.57
2017-03-23T08:26:50.386Z,7.52
2017-03-23T08:27:59.586Z,7.67
2017-03-23T08:29:08.541Z,7.64
2017-03-23T08:30:17.498Z,7.68
2017-03-23T08:31:26.615Z,7.77
2017-03-23T08:32:35.611Z,7.86
2017-03-23T08:33:44.878Z,7.87
2017-03-23T08:34:53.827Z,7.89
2017-03-23T08:36:02.778Z,7.86
2017-03-23T08:37:11.732Z,7.86
2017-03-23T08:38:20.682Z,7.83
2017-03-23T08:39:29.907Z,7.86
2017-03-23T08:40:38.858Z,7.9
2017-03-23T08:41:47.897Z,7.89
2017-03-23T08:42:56.936Z,7.83
2017-03-23T08:44:05.889Z,7.83
2017-03-23T08:45:15.726Z,7.89
2017-03-23T08:46:24.905Z,7.83
2017-03-23T08:47:33.955Z,7.86
2017-03-23T08:48:43.359Z,7.87
2017-03-23T08:49:52.395Z,7.92
2017-03-23T08:51:01.628Z,7.87
2017-03-23T08:52:10.663Z,7.98
2017-03-23T08:53:19.854Z,7.95
2017-03-23T08:54:28.945Z,8.02
2017-03-23T08:55:38.862Z,8.01
2017-03-23T08:56:51.366Z,8.02
2017-03-23T08:58:06.419Z,7.95
2017-03-23T08:59:15.616Z,7.9
2017-03-23T09:00:25.096Z,7.9
2017-03-23T09:01:34.109Z,7.93
2017-03-23T09:02:45.157Z,7.92
2017-03-23T09:03:55.084Z,7.93
2017-03-23T09:05:04.178Z,7.83
2017-03-23T09:06:13.576Z,8
2017-03-23T09:07:22.618Z,7.95
2017-03-23T09:08:31.940Z,7.95
2017-03-23T09:09:40.915Z,7.89
2017-03-23T09:10:51.000Z,7.95
2017-03-23T09:12:01.595Z,7.95
2017-03-23T09:13:12.525Z,7.98
2017-03-23T09:14:22.673Z,7.89
2017-03-23T09:15:34.565Z,7.95
2017-03-23T09:16:43.561Z,8.01
2017-03-23T09:17:52.537Z,7.92
2017-03-23T09:19:01.491Z,7.92
2017-03-23T09:20:10.811Z,7.93
2017-03-23T09:21:19.763Z,7.92
2017-03-23T09:22:28.882Z,7.93
2017-03-23T09:23:38.448Z,7.98
2017-03-23T09:24:47.901Z,7.86
2017-03-23T09:25:57.553Z,7.92
2017-03-23T09:27:06.691Z,7.93
2017-03-23T09:28:16.077Z,7.92
2017-03-23T09:29:25.478Z,7.89
2017-03-23T09:30:34.603Z,7.89
2017-03-23T09:31:44.470Z,7.87
2017-03-23T09:32:53.624Z,7.93
2017-03-23T09:34:03.016Z,7.98
2017-03-23T09:35:12.230Z,7.93
2017-03-23T09:36:21.422Z,7.98
2017-03-23T09:37:30.781Z,7.98
2017-03-23T09:38:40.261Z,7.93
2017-03-23T09:39:49.277Z,8.01
2017-03-23T09:40:58.387Z,8.04
2017-03-23T09:42:07.384Z,7.98
2017-03-23T09:43:16.645Z,8
2017-03-23T09:44:25.679Z,7.95
2017-03-23T09:45:35.092Z,7.92
2017-03-23T09:46:44.172Z,7.95
2017-03-23T09:47:53.123Z,7.9
2017-03-23T09:49:02.414Z,7.95
2017-03-23T09:50:11.366Z,8.04
2017-03-23T09:51:20.368Z,8.04
2017-03-23T09:52:29.803Z,8.07
2017-03-23T09:53:39.278Z,8.08
2017-03-23T09:54:48.571Z,8.04
2017-03-23T09:55:57.523Z,8.08
2017-03-23T09:57:06.805Z,8.12
2017-03-23T09:58:15.911Z,8.12
2017-03-23T09:59:25.049Z,8.16
2017-03-23T10:00:34.268Z,8.15
2017-03-23T10:01:43.544Z,8.19
2017-03-23T10:02:52.496Z,8.25
2017-03-23T10:04:01.446Z,8.18
2017-03-23T10:05:10.399Z,8.29
2017-03-23T10:06:19.613Z,8.29
2017-03-23T10:07:28.652Z,8.23
2017-03-23T10:08:37.955Z,8.22
2017-03-23T10:09:46.909Z,8.3
2017-03-23T10:10:55.863Z,8.28
2017-03-23T10:12:05.067Z,8.3
2017-03-23T10:13:14.016Z,8.22
2017-03-23T10:14:22.966Z,8.19
2017-03-23T10:15:31.923Z,8.2
2017-03-23T10:16:40.878Z,8.05
2017-03-23T10:17:50.082Z,8
2017-03-23T10:18:59.029Z,8.04
2017-03-23T10:20:07.982Z,8.05
2017-03-23T10:21:16.934Z,8.1
2017-03-23T10:22:25.890Z,7.98
2017-03-23T10:23:35.098Z,8.01
2017-03-23T10:24:44.058Z,7.97
2017-03-23T10:25:53.011Z,7.92
2017-03-23T10:27:01.963Z,7.95
2017-03-23T10:28:10.912Z,7.9
2017-03-23T10:29:20.113Z,8.01
2017-03-23T10:30:29.057Z,7.95
2017-03-23T10:31:38.014Z,8.01
2017-03-23T10:32:47.052Z,8.05
2017-03-23T10:33:56.002Z,8.08
2017-03-23T10:35:05.212Z,8.02
2017-03-23T10:36:14.166Z,8.05
2017-03-23T10:37:23.122Z,7.98
2017-03-23T10:38:32.076Z,8.01
2017-03-23T10:39:41.033Z,8.04
2017-03-23T10:40:50.244Z,8.01
2017-03-23T10:41:59.198Z,8
2017-03-23T10:43:08.151Z,7.92
2017-03-23T10:44:17.103Z,7.98
2017-03-23T10:45:26.049Z,7.98
2017-03-23T10:46:35.304Z,8
2017-03-23T10:47:44.255Z,7.93
2017-03-23T10:48:53.207Z,7.9
2017-03-23T10:50:02.157Z,7.97
2017-03-23T10:51:11.115Z,7.93
2017-03-23T10:52:20.315Z,7.89
2017-03-23T10:53:29.307Z,7.83
2017-03-23T10:54:38.259Z,7.87
2017-03-23T10:55:47.215Z,7.8
2017-03-23T10:56:56.173Z,7.92
2017-03-23T10:58:05.374Z,7.83
2017-03-23T10:59:14.332Z,7.93
2017-03-23T11:00:23.305Z,7.89
2017-03-23T11:01:32.257Z,7.98
2017-03-23T11:02:41.215Z,7.86
2017-03-23T11:03:50.492Z,7.86
2017-03-23T11:04:59.442Z,7.89
2017-03-23T11:06:08.483Z,7.8
2017-03-23T11:07:17.435Z,7.77
2017-03-23T11:08:26.484Z,7.83
2017-03-23T11:09:35.694Z,7.79
2017-03-23T11:10:44.643Z,7.93
2017-03-23T11:11:53.601Z,7.89
2017-03-23T11:13:02.683Z,7.87
2017-03-23T11:14:11.634Z,7.85
2017-03-23T11:15:20.847Z,7.86
2017-03-23T11:16:29.798Z,7.83
2017-03-23T11:17:38.921Z,7.82
2017-03-23T11:18:47.870Z,7.79
2017-03-23T11:19:56.820Z,7.79
2017-03-23T11:21:06.106Z,7.83
2017-03-23T11:22:15.061Z,7.89
2017-03-23T11:23:24.014Z,7.89
2017-03-23T11:24:33.128Z,7.95
2017-03-23T11:25:42.411Z,7.95
2017-03-23T11:26:51.615Z,7.97
2017-03-23T11:28:00.668Z,7.93
2017-03-23T11:29:09.705Z,7.95
2017-03-23T11:30:18.653Z,8
2017-03-23T11:31:27.603Z,7.95
2017-03-23T11:32:36.860Z,7.75
2017-03-23T11:33:45.818Z,7.93
2017-03-23T11:34:54.768Z,7.95
2017-03-23T11:36:03.718Z,7.92
2017-03-23T11:37:12.997Z,7.93
2017-03-23T11:38:22.199Z,7.97
2017-03-23T11:39:31.153Z,7.9
2017-03-23T11:40:40.110Z,7.98
2017-03-23T11:41:49.069Z,7.93
2017-03-23T11:42:58.018Z,7.93
2017-03-23T11:44:07.219Z,7.92
2017-03-23T11:45:16.306Z,8
2017-03-23T11:46:25.259Z,8
2017-03-23T11:47:34.213Z,8.02
2017-03-23T11:48:43.162Z,8.02
2017-03-23T11:49:52.360Z,7.98
2017-03-23T11:51:01.318Z,8
2017-03-23T11:52:10.272Z,7.93
2017-03-23T11:53:19.223Z,7.95
2017-03-23T11:54:28.172Z,7.95
2017-03-23T11:55:37.466Z,7.92
2017-03-23T11:56:46.440Z,7.92
2017-03-23T11:57:55.394Z,7.97
2017-03-23T11:59:04.346Z,7.9
2017-03-23T12:00:13.298Z,7.82
2017-03-23T12:01:22.505Z,7.9
2017-03-23T12:02:31.455Z,7.9
2017-03-23T12:03:40.411Z,7.98
2017-03-23T12:04:49.365Z,7.87
2017-03-23T12:05:58.432Z,7.89
2017-03-23T12:07:08.443Z,7.85
2017-03-23T12:08:17.414Z,7.89
2017-03-23T12:09:26.382Z,7.85
2017-03-23T12:10:35.342Z,7.83
2017-03-23T12:11:44.386Z,7.8
2017-03-23T12:12:53.624Z,7.92
2017-03-23T12:14:02.656Z,7.93
2017-03-23T12:15:11.605Z,7.89
2017-03-23T12:16:20.552Z,7.92
2017-03-23T12:17:29.500Z,7.89
2017-03-23T12:18:38.701Z,7.92
2017-03-23T12:19:47.670Z,7.98
2017-03-23T12:20:56.625Z,7.95
2017-03-23T12:22:05.575Z,7.98
2017-03-23T12:23:14.553Z,8.01
2017-03-23T12:24:24.741Z,8.05
2017-03-23T12:25:33.695Z,8.1
2017-03-23T12:26:42.642Z,8.07
2017-03-23T12:27:51.595Z,8.04
2017-03-23T12:29:00.543Z,8.04
2017-03-23T12:30:09.741Z,8.07
2017-03-23T12:31:18.778Z,8.19
2017-03-23T12:32:27.736Z,8.26
2017-03-23T12:33:36.696Z,8.25
2017-03-23T12:34:45.656Z,8.3
2017-03-23T12:35:54.863Z,8.22
2017-03-23T12:37:03.819Z,8.26
2017-03-23T12:38:12.771Z,8.2
2017-03-23T12:39:21.725Z,8.2
2017-03-23T12:40:30.677Z,8.34
2017-03-23T12:41:39.878Z,8.29
2017-03-23T12:42:48.826Z,8.34
2017-03-23T12:43:57.777Z,8.34
2017-03-23T12:45:06.764Z,8.37
2017-03-23T12:46:15.808Z,8.33
2017-03-23T12:47:25.010Z,8.29
2017-03-23T12:48:33.973Z,8.28
2017-03-23T12:49:42.925Z,8.3
2017-03-23T12:50:51.883Z,8.34
2017-03-23T12:52:00.839Z,8.26
2017-03-23T12:53:10.220Z,8.23
2017-03-23T12:54:19.257Z,8.36
2017-03-23T12:55:28.271Z,8.28
2017-03-23T12:56:37.272Z,8.3
2017-03-23T12:57:46.385Z,8.34
2017-03-23T12:58:55.845Z,8.38
2017-03-23T13:00:04.867Z,8.44
2017-03-23T13:01:13.878Z,8.45
2017-03-23T13:02:22.903Z,8.41
2017-03-23T13:03:31.928Z,8.4
2017-03-23T13:04:41.249Z,8.44
2017-03-23T13:05:50.287Z,8.48
2017-03-23T13:06:59.284Z,8.62
2017-03-23T13:08:08.858Z,8.56
2017-03-23T13:09:19.868Z,8.63
2017-03-23T13:10:29.757Z,8.71
2017-03-23T13:11:38.781Z,8.65
2017-03-23T13:12:47.733Z,8.68
2017-03-23T13:13:56.771Z,8.62
2017-03-23T13:15:05.758Z,8.66
2017-03-23T13:16:15.020Z,8.74
2017-03-23T13:17:24.016Z,8.76
2017-03-23T13:18:33.136Z,8.71
2017-03-23T13:19:42.135Z,8.73
2017-03-23T13:20:51.088Z,8.68
2017-03-23T13:22:00.287Z,8.61
2017-03-23T13:23:09.240Z,8.65
2017-03-23T13:24:18.201Z,8.48
2017-03-23T13:25:27.200Z,8.48
2017-03-23T13:26:36.149Z,8.53
2017-03-23T13:27:45.346Z,8.44
2017-03-23T13:28:54.296Z,8.41
2017-03-23T13:30:03.337Z,8.41
2017-03-23T13:31:12.291Z,8.41
2017-03-23T13:32:21.242Z,8.41
2017-03-23T13:33:30.500Z,8.43
2017-03-23T13:34:39.576Z,8.37
2017-03-23T13:35:48.532Z,8.43
2017-03-23T13:36:57.585Z,8.38
2017-03-23T13:38:06.863Z,8.5
2017-03-23T13:39:16.075Z,8.47
2017-03-23T13:40:25.025Z,8.53
2017-03-23T13:41:33.993Z,8.53
2017-03-23T13:42:42.947Z,8.58
2017-03-23T13:43:51.898Z,8.65
2017-03-23T13:45:01.278Z,8.61
2017-03-23T13:46:10.236Z,8.59
2017-03-23T13:47:19.187Z,8.53
2017-03-23T13:48:28.144Z,8.48
2017-03-23T13:49:37.104Z,8.52
2017-03-23T13:50:46.478Z,8.55
2017-03-23T13:51:55.514Z,8.5
2017-03-23T13:53:04.562Z,8.47
2017-03-23T13:54:13.520Z,8.61
2017-03-23T13:55:22.486Z,8.59
2017-03-23T13:56:31.809Z,8.65
2017-03-23T13:57:40.763Z,8.73
2017-03-23T13:58:49.869Z,8.76
2017-03-23T13:59:58.870Z,8.79
2017-03-23T14:01:07.822Z,8.74
2017-03-23T14:02:17.029Z,8.74
2017-03-23T14:03:25.981Z,8.83
2017-03-23T14:04:35.023Z,8.74
2017-03-23T14:05:43.974Z,8.87
2017-03-23T14:06:52.931Z,8.86
2017-03-23T14:08:02.220Z,8.92
2017-03-23T14:09:11.170Z,8.92
2017-03-23T14:10:20.134Z,8.92
2017-03-23T14:11:29.082Z,8.92
2017-03-23T14:12:38.040Z,8.92
2017-03-23T14:13:47.243Z,8.91
2017-03-23T14:14:56.194Z,8.87
2017-03-23T14:16:05.148Z,8.89
2017-03-23T14:17:14.117Z,8.99
2017-03-23T14:18:23.075Z,8.96
2017-03-23T14:19:32.276Z,8.99
2017-03-23T14:20:41.232Z,9.01
2017-03-23T14:21:50.188Z,8.87
2017-03-23T14:22:59.146Z,8.98
2017-03-23T14:24:08.096Z,8.99
2017-03-23T14:25:17.387Z,9.01
2017-03-23T14:26:26.336Z,8.87
2017-03-23T14:27:35.286Z,8.87
2017-03-23T14:28:44.233Z,8.86
2017-03-23T14:29:53.265Z,8.92
2017-03-23T14:31:02.465Z,8.86
2017-03-23T14:32:11.419Z,8.91
2017-03-23T14:33:20.371Z,8.89
2017-03-23T14:34:29.325Z,8.98
2017-03-23T14:35:38.272Z,9.04
2017-03-23T14:36:47.475Z,9.13
2017-03-23T14:37:56.431Z,9.11
2017-03-23T14:39:05.392Z,9.05
2017-03-23T14:40:14.342Z,9.05
2017-03-23T14:41:23.294Z,9.05
2017-03-23T14:42:32.498Z,9.14
2017-03-23T14:43:41.457Z,9.18
2017-03-23T14:44:50.414Z,9.14
2017-03-23T14:45:59.377Z,9.13
2017-03-23T14:47:08.332Z,9.14
2017-03-23T14:48:17.534Z,9.08
2017-03-23T14:49:26.493Z,9.04
2017-03-23T14:50:35.863Z,9.11
2017-03-23T14:51:45.498Z,9.08
2017-03-23T14:52:54.804Z,9.04
2017-03-23T14:54:04.048Z,9.14
2017-03-23T14:55:13.084Z,9.13
2017-03-23T14:56:22.102Z,9.14
2017-03-23T14:57:31.188Z,9.1
2017-03-23T14:58:40.348Z,9.1
2017-03-23T14:59:50.609Z,9.05
2017-03-23T15:00:59.855Z,9.13
2017-03-23T15:02:08.942Z,9.18
2017-03-23T15:03:18.208Z,9.18
2017-03-23T15:04:27.394Z,9.13
2017-03-23T15:05:37.007Z,9.18
2017-03-23T15:06:46.165Z,9.24
2017-03-23T15:07:55.320Z,9.26
2017-03-23T15:09:04.601Z,9.1
2017-03-23T15:10:13.718Z,9.1
2017-03-23T15:11:23.088Z,9.14
2017-03-23T15:12:32.320Z,9.05
2017-03-23T15:13:41.487Z,9.08
2017-03-23T15:14:50.598Z,8.95
2017-03-23T15:15:59.654Z,8.99
2017-03-23T15:17:09.260Z,8.86
2017-03-23T15:18:18.354Z,8.92
2017-03-23T15:19:27.631Z,8.91
2017-03-23T15:20:36.682Z,8.92
2017-03-23T15:21:45.639Z,8.89
2017-03-23T15:22:55.089Z,8.99
2017-03-23T15:24:04.310Z,9.02
2017-03-23T15:25:13.410Z,9.02